createdAt,value
2022-12-18T00:00:48.396Z,15.90
2022-12-18T00:03:36.435Z,17.10
2022-12-18T00:06:03.145Z,17.20
2022-12-18T00:08:29.538Z,16.70
2022-12-18T00:10:55.929Z,16.90
2022-12-18T00:13:27.616Z,17.10
2022-12-18T00:15:54.488Z,17.10
2022-12-18T00:18:23.136Z,15.20
2022-12-18T00:20:49.453Z,16.20
2022-12-18T00:23:15.856Z,17.50
2022-12-18T00:25:42.259Z,17.80
2022-12-18T00:28:08.740Z,15.40
2022-12-18T00:30:35.124Z,16.50
2022-12-18T00:33:01.476Z,17.00
2022-12-18T00:35:27.935Z,15.80
2022-12-18T00:37:54.345Z,17.10
2022-12-18T00:40:20.683Z,14.20
2022-12-18T00:42:56.265Z,14.50
2022-12-18T00:45:31.142Z,14.70
2022-12-18T00:47:57.724Z,13.90
2022-12-18T00:50:25.166Z,15.00
2022-12-18T00:52:52.389Z,14.30
2022-12-18T00:55:19.123Z,14.90
2022-12-18T00:57:46.998Z,15.40
2022-12-18T01:00:14.885Z,14.30
2022-12-18T01:02:41.806Z,13.90
2022-12-18T01:05:10.362Z,14.10
2022-12-18T01:07:37.304Z,13.90
2022-12-18T01:10:05.447Z,13.50
2022-12-18T01:12:32.083Z,15.60
2022-12-18T01:14:58.811Z,14.60
2022-12-18T01:17:25.573Z,16.70
2022-12-18T01:19:53.577Z,14.00
2022-12-18T01:22:20.006Z,14.50
2022-12-18T01:24:46.615Z,13.70
2022-12-18T01:27:13.016Z,12.50
2022-12-18T01:29:39.944Z,13.10
2022-12-18T01:32:06.388Z,13.70
2022-12-18T01:34:32.908Z,11.10
2022-12-18T01:36:59.232Z,11.60
2022-12-18T01:39:26.201Z,13.10
2022-12-18T01:42:01.728Z,12.20
2022-12-18T01:44:53.226Z,11.40
2022-12-18T01:47:39.613Z,12.00
2022-12-18T01:50:15.398Z,12.50
2022-12-18T01:52:44.480Z,12.20
2022-12-18T01:55:11.738Z,12.00
2022-12-18T01:57:38.711Z,12.60
2022-12-18T02:00:12.985Z,10.80
2022-12-18T02:02:41.372Z,11.10
2022-12-18T02:05:08.561Z,11.20
2022-12-18T02:07:35.047Z,11.10
2022-12-18T02:10:14.025Z,10.60
2022-12-18T02:12:43.067Z,10.90
2022-12-18T02:15:26.026Z,10.20
2022-12-18T02:17:59.286Z,11.00
2022-12-18T02:20:35.696Z,11.10
2022-12-18T02:23:14.416Z,11.50
2022-12-18T02:26:06.399Z,11.90
2022-12-18T02:28:37.147Z,10.70
2022-12-18T02:31:08.283Z,10.50
2022-12-18T02:33:36.508Z,11.50
2022-12-18T02:36:03.749Z,10.00
2022-12-18T02:38:31.881Z,9.90
2022-12-18T02:41:02.844Z,8.70
2022-12-18T02:43:30.103Z,8.60
2022-12-18T02:45:59.850Z,8.80
2022-12-18T02:48:33.768Z,8.80
2022-12-18T02:51:09.349Z,9.60
2022-12-18T02:54:15.467Z,10.50
2022-12-18T02:56:48.625Z,9.60
2022-12-18T02:59:32.371Z,11.40
2022-12-18T03:01:59.700Z,11.30
2022-12-18T03:04:40.495Z,11.30
2022-12-18T03:07:12.978Z,10.10
2022-12-18T03:12:25.351Z,11.90
2022-12-18T03:15:05.345Z,11.10
2022-12-18T03:17:34.114Z,11.30
2022-12-18T03:20:06.759Z,11.80
2022-12-18T03:22:35.597Z,11.40
2022-12-18T03:25:06.750Z,12.00
2022-12-18T03:27:37.662Z,10.00
2022-12-18T03:30:09.280Z,9.90
2022-12-18T03:32:47.748Z,8.90
2022-12-18T03:35:22.332Z,10.20
2022-12-18T03:37:49.314Z,9.20
2022-12-18T03:40:15.881Z,10.60
2022-12-18T03:42:57.907Z,10.60
2022-12-18T03:45:35.131Z,9.80
2022-12-18T03:48:03.947Z,9.90
2022-12-18T03:51:05.296Z,11.30
2022-12-18T03:53:47.219Z,10.80
2022-12-18T03:56:16.380Z,9.50
2022-12-18T03:58:43.945Z,9.30
2022-12-18T04:01:20.827Z,9.60
2022-12-18T04:03:49.471Z,9.70
2022-12-18T04:06:17.674Z,10.30
2022-12-18T04:08:45.386Z,10.80
2022-12-18T04:11:13.492Z,10.80
2022-12-18T04:13:43.082Z,10.70
2022-12-18T04:16:15.399Z,9.60
2022-12-18T04:18:43.154Z,10.30
2022-12-18T04:21:10.640Z,10.70
2022-12-18T04:23:37.825Z,12.20
2022-12-18T04:26:04.751Z,11.80
2022-12-18T04:28:42.273Z,11.20
2022-12-18T04:31:09.247Z,11.50
2022-12-18T04:33:36.014Z,11.00
2022-12-18T04:36:03.776Z,10.50
2022-12-18T04:38:30.405Z,11.60
2022-12-18T04:43:30.064Z,9.90
2022-12-18T04:46:07.297Z,11.40
2022-12-18T04:48:33.941Z,11.70
2022-12-18T04:51:02.962Z,12.80
2022-12-18T04:53:29.319Z,12.90
2022-12-18T04:56:13.500Z,12.20
2022-12-18T04:58:41.661Z,12.20
2022-12-18T05:01:09.050Z,12.80
2022-12-18T05:03:36.628Z,13.20
2022-12-18T05:06:04.225Z,12.80
2022-12-18T05:08:30.743Z,12.80
2022-12-18T05:11:06.677Z,14.20
2022-12-18T05:13:34.222Z,10.30
2022-12-18T05:16:00.929Z,11.40
2022-12-18T05:18:27.515Z,12.60
2022-12-18T05:20:54.754Z,12.00
2022-12-18T05:23:23.146Z,12.30
2022-12-18T05:26:15.491Z,12.50
2022-12-18T05:31:08.414Z,9.90
2022-12-18T05:33:35.661Z,10.50
2022-12-18T05:36:04.572Z,11.30
2022-12-18T05:38:32.579Z,11.10
2022-12-18T05:40:59.700Z,9.50
2022-12-18T05:43:26.920Z,10.30
2022-12-18T05:45:54.371Z,10.50
2022-12-18T05:48:21.291Z,10.00
2022-12-18T05:50:49.021Z,10.10
2022-12-18T05:53:17.485Z,10.70
2022-12-18T05:55:44.606Z,10.80
2022-12-18T05:58:12.917Z,10.40
2022-12-18T06:00:42.833Z,10.90
2022-12-18T06:03:11.155Z,10.60
2022-12-18T06:05:43.699Z,10.20
2022-12-18T06:08:10.903Z,10.10
2022-12-18T06:10:37.882Z,9.40
2022-12-18T06:13:04.989Z,10.20
2022-12-18T06:15:31.646Z,10.60
2022-12-18T06:17:58.054Z,10.90
2022-12-18T06:20:26.916Z,10.50
2022-12-18T06:22:56.961Z,9.80
2022-12-18T06:25:23.465Z,9.50
2022-12-18T06:27:49.829Z,10.00
2022-12-18T06:30:16.253Z,11.10
2022-12-18T06:32:43.029Z,10.30
2022-12-18T06:35:09.452Z,11.10
2022-12-18T06:37:35.785Z,10.70
2022-12-18T06:40:02.381Z,10.00
2022-12-18T06:42:29.475Z,10.10
2022-12-18T06:44:55.930Z,10.40
2022-12-18T06:47:22.320Z,9.40
2022-12-18T06:49:48.685Z,10.10
2022-12-18T06:52:18.014Z,9.60
2022-12-18T06:54:44.719Z,9.70
2022-12-18T06:57:11.486Z,10.80
2022-12-18T06:59:37.829Z,10.20
2022-12-18T07:02:05.009Z,11.30
2022-12-18T07:04:32.308Z,11.30
2022-12-18T07:06:58.703Z,12.10
2022-12-18T07:09:25.173Z,12.80
2022-12-18T07:11:52.535Z,12.90
2022-12-18T07:14:18.974Z,12.40
2022-12-18T07:16:45.484Z,14.10
2022-12-18T07:19:11.860Z,14.00
2022-12-18T07:21:38.411Z,14.40
2022-12-18T07:24:05.839Z,13.10
2022-12-18T07:26:32.837Z,11.70
2022-12-18T07:28:59.189Z,13.10
2022-12-18T07:31:26.000Z,12.80
2022-12-18T07:33:52.635Z,12.70
2022-12-18T07:36:19.674Z,13.70
2022-12-18T07:38:49.951Z,13.50
2022-12-18T07:41:16.918Z,14.20
2022-12-18T07:43:43.840Z,13.80
2022-12-18T07:46:13.975Z,14.80
2022-12-18T07:48:41.635Z,16.00
2022-12-18T07:51:08.661Z,16.30
2022-12-18T07:53:36.309Z,17.20
2022-12-18T07:56:26.381Z,14.80
2022-12-18T07:58:52.810Z,18.60
2022-12-18T08:01:19.274Z,15.90
2022-12-18T08:03:47.901Z,18.60
2022-12-18T08:06:14.630Z,16.60
2022-12-18T08:08:42.452Z,19.90
2022-12-18T08:11:08.870Z,19.80
2022-12-18T08:13:35.313Z,19.70
2022-12-18T08:16:04.825Z,19.50
2022-12-18T08:18:35.974Z,17.10
2022-12-18T08:21:09.979Z,20.20
2022-12-18T08:23:42.082Z,18.20
2022-12-18T08:26:13.363Z,16.60
2022-12-18T08:28:40.458Z,17.70
2022-12-18T08:31:07.999Z,17.00
2022-12-18T08:33:35.213Z,17.40
2022-12-18T08:36:02.243Z,15.90
2022-12-18T08:38:28.936Z,15.50
2022-12-18T08:41:15.074Z,13.10
2022-12-18T08:44:00.938Z,16.70
2022-12-18T08:46:36.499Z,14.10
2022-12-18T08:49:03.751Z,15.40
2022-12-18T08:51:30.603Z,14.00
2022-12-18T08:53:57.325Z,14.00
2022-12-18T08:56:23.699Z,14.50
2022-12-18T08:58:54.432Z,14.80
2022-12-18T09:01:21.489Z,14.70
2022-12-18T09:03:49.533Z,14.70
2022-12-18T09:06:17.609Z,16.00
2022-12-18T09:08:45.080Z,14.90
2022-12-18T09:11:20.152Z,15.50
2022-12-18T09:13:46.633Z,17.00
2022-12-18T09:16:13.201Z,15.50
2022-12-18T09:18:39.887Z,16.70
2022-12-18T09:21:11.246Z,13.30
2022-12-18T09:23:37.695Z,16.20
2022-12-18T09:26:04.666Z,15.10
2022-12-18T09:28:31.022Z,16.90
2022-12-18T09:30:57.821Z,16.80
2022-12-18T09:33:24.433Z,15.80
2022-12-18T09:35:50.908Z,16.50
2022-12-18T09:38:19.758Z,17.00
2022-12-18T09:40:54.601Z,17.40
2022-12-18T09:43:30.832Z,14.40
2022-12-18T09:46:27.900Z,16.90
2022-12-18T09:48:57.796Z,15.60
2022-12-18T09:51:35.646Z,15.70
2022-12-18T09:54:05.900Z,17.00
2022-12-18T09:56:36.173Z,16.70
2022-12-18T09:59:04.375Z,14.50
2022-12-18T10:01:40.186Z,19.00
2022-12-18T10:04:09.961Z,16.80
2022-12-18T10:06:48.967Z,19.50
2022-12-18T10:09:29.169Z,17.10
2022-12-18T10:11:56.138Z,17.70
2022-12-18T10:14:43.724Z,18.10
2022-12-18T10:18:08.971Z,17.60
2022-12-18T10:20:58.638Z,18.90
2022-12-18T10:23:30.429Z,19.20
2022-12-18T10:26:05.390Z,18.50
2022-12-18T10:28:35.254Z,17.10
2022-12-18T10:31:01.879Z,18.20
2022-12-18T10:33:30.461Z,18.70
2022-12-18T10:35:57.720Z,19.50
2022-12-18T10:38:30.244Z,20.30
2022-12-18T10:41:01.560Z,18.70
2022-12-18T10:43:28.000Z,18.20
2022-12-18T10:46:08.357Z,16.90
2022-12-18T10:48:57.358Z,20.20
2022-12-18T10:51:30.298Z,17.70
2022-12-18T10:54:00.045Z,21.60
2022-12-18T10:56:28.744Z,19.10
2022-12-18T10:59:06.333Z,19.20
2022-12-18T11:01:56.297Z,18.90
2022-12-18T11:04:25.413Z,14.80
2022-12-18T11:07:07.571Z,18.30
2022-12-18T11:09:36.830Z,17.80
2022-12-18T11:12:20.468Z,17.20
2022-12-18T11:14:51.973Z,18.40
2022-12-18T11:17:25.917Z,19.00
2022-12-18T11:19:57.526Z,18.70
2022-12-18T11:22:27.894Z,17.70
2022-12-18T11:25:32.598Z,18.70
2022-12-18T11:27:56.204Z,18.00
2022-12-18T11:30:28.682Z,19.40
2022-12-18T11:33:09.964Z,18.30
2022-12-18T11:35:46.165Z,20.10
2022-12-18T11:38:27.620Z,19.20
2022-12-18T11:41:50.455Z,19.30
2022-12-18T11:44:43.366Z,18.30
2022-12-18T11:47:31.709Z,21.20
2022-12-18T11:50:01.645Z,18.90
2022-12-18T11:52:37.572Z,20.80
2022-12-18T11:55:23.599Z,17.20
2022-12-18T11:58:27.872Z,19.40
2022-12-18T12:01:06.443Z,19.10
2022-12-18T12:03:41.104Z,21.80
2022-12-18T12:06:24.926Z,19.30
2022-12-18T12:08:54.814Z,21.70
2022-12-18T12:11:33.348Z,20.00
2022-12-18T12:14:24.896Z,18.50
2022-12-18T12:17:23.825Z,20.10
2022-12-18T12:20:13.506Z,19.30
2022-12-18T12:22:50.287Z,19.90
2022-12-18T12:25:50.290Z,18.00
2022-12-18T12:28:49.001Z,20.90
2022-12-18T12:31:21.469Z,18.80
2022-12-18T12:34:01.893Z,20.30
2022-12-18T12:36:50.284Z,20.30
2022-12-18T12:39:20.957Z,16.70
2022-12-18T12:42:06.238Z,19.40
2022-12-18T12:44:38.892Z,17.80
2022-12-18T12:47:17.265Z,17.00
2022-12-18T12:49:48.071Z,15.70
2022-12-18T12:52:18.537Z,17.00
2022-12-18T12:54:45.898Z,16.30
2022-12-18T12:57:18.669Z,16.60
2022-12-18T13:00:06.387Z,16.50
2022-12-18T13:02:45.661Z,16.00
2022-12-18T13:05:24.105Z,16.80
2022-12-18T13:07:55.151Z,16.10
2022-12-18T13:10:31.549Z,16.50
2022-12-18T13:13:13.364Z,14.00
2022-12-18T13:18:09.675Z,17.00
2022-12-18T13:20:40.566Z,18.30
2022-12-18T13:23:25.061Z,19.20
2022-12-18T13:25:59.761Z,19.40
2022-12-18T13:28:45.695Z,18.80
2022-12-18T13:31:14.071Z,19.30
2022-12-18T13:34:24.724Z,21.00
2022-12-18T13:36:33.983Z,19.70
2022-12-18T13:39:34.909Z,17.80
2022-12-18T13:42:05.283Z,20.10
2022-12-18T13:44:38.544Z,20.90
2022-12-18T13:47:33.128Z,21.10
2022-12-18T13:50:00.807Z,20.30
2022-12-18T13:52:36.043Z,19.30
2022-12-18T13:55:07.607Z,20.50
2022-12-18T13:57:38.918Z,22.10
2022-12-18T14:00:20.856Z,20.20
2022-12-18T14:02:47.482Z,23.70
2022-12-18T14:05:34.727Z,20.80
2022-12-18T14:08:05.973Z,21.50
2022-12-18T14:10:47.751Z,22.10
2022-12-18T14:13:42.179Z,21.00
2022-12-18T14:16:14.389Z,21.30
2022-12-18T14:18:45.713Z,20.20
2022-12-18T14:21:38.308Z,20.20
2022-12-18T14:24:09.146Z,21.70
2022-12-18T14:26:35.540Z,20.40
2022-12-18T14:29:19.258Z,21.30
2022-12-18T14:31:45.982Z,23.60
2022-12-18T14:34:19.713Z,21.40
2022-12-18T14:36:56.617Z,20.90
2022-12-18T14:39:24.204Z,20.50
2022-12-18T14:41:52.543Z,22.70
2022-12-18T14:44:19.000Z,19.80
2022-12-18T14:46:46.605Z,21.90
2022-12-18T14:49:26.829Z,22.90
2022-12-18T14:51:56.074Z,22.80
2022-12-18T14:54:23.872Z,21.80
2022-12-18T14:57:26.712Z,21.30
2022-12-18T14:59:53.091Z,22.20
2022-12-18T15:02:27.908Z,23.60
2022-12-18T15:05:13.339Z,23.70
2022-12-18T15:07:53.557Z,22.70
2022-12-18T15:10:21.763Z,22.80
2022-12-18T15:13:01.445Z,21.80
2022-12-18T15:15:34.383Z,21.50
2022-12-18T15:18:04.308Z,24.80
2022-12-18T15:20:31.952Z,22.70
2022-12-18T15:22:58.394Z,20.00
2022-12-18T15:25:39.940Z,21.30
2022-12-18T15:28:34.120Z,22.80
2022-12-18T15:31:10.071Z,22.60
2022-12-18T15:33:40.108Z,22.40
2022-12-18T15:36:12.160Z,23.40
2022-12-18T15:38:38.680Z,21.60
2022-12-18T15:41:11.578Z,21.20
2022-12-18T15:43:41.171Z,21.10
2022-12-18T15:46:16.036Z,22.00
2022-12-18T15:48:44.752Z,22.70
2022-12-18T15:51:17.848Z,25.90
2022-12-18T15:53:45.424Z,20.90
2022-12-18T15:56:32.682Z,23.50
2022-12-18T15:59:01.057Z,23.30
2022-12-18T16:01:29.934Z,23.60
2022-12-18T16:03:56.931Z,23.20
2022-12-18T16:06:23.452Z,24.90
2022-12-18T16:08:50.105Z,24.10
2022-12-18T16:11:38.227Z,20.50
2022-12-18T16:14:28.422Z,24.30
2022-12-18T16:17:05.911Z,21.70
2022-12-18T16:19:32.261Z,25.40
2022-12-18T16:21:58.930Z,23.10
2022-12-18T16:24:28.620Z,24.00
2022-12-18T16:26:57.109Z,23.20
2022-12-18T16:29:27.155Z,19.30
2022-12-18T16:31:57.327Z,22.90
2022-12-18T16:34:29.999Z,23.80
2022-12-18T16:37:03.323Z,23.60
2022-12-18T16:39:34.270Z,24.00
2022-12-18T16:42:12.828Z,24.20
2022-12-18T16:44:39.145Z,22.70
2022-12-18T16:47:05.460Z,24.40
2022-12-18T16:49:33.013Z,22.10
2022-12-18T16:52:03.573Z,23.60
2022-12-18T16:54:30.078Z,23.80
2022-12-18T16:56:57.078Z,25.30
2022-12-18T16:59:23.471Z,24.20
2022-12-18T17:01:50.457Z,25.20
2022-12-18T17:04:17.814Z,24.80
2022-12-18T17:06:51.015Z,24.70
2022-12-18T17:09:22.497Z,25.40
2022-12-18T17:11:48.891Z,26.20
2022-12-18T17:14:17.805Z,26.10
2022-12-18T17:16:45.877Z,23.40
2022-12-18T17:19:17.142Z,25.40
2022-12-18T17:21:46.558Z,26.60
2022-12-18T17:24:12.895Z,26.60
2022-12-18T17:26:39.370Z,25.90
2022-12-18T17:29:05.788Z,26.50
2022-12-18T17:31:33.769Z,27.10
2022-12-18T17:34:02.454Z,25.30
2022-12-18T17:36:31.591Z,27.60
2022-12-18T17:39:00.293Z,26.50
2022-12-18T17:41:27.809Z,26.70
2022-12-18T17:43:59.181Z,24.90
2022-12-18T17:46:26.728Z,25.90
2022-12-18T17:48:57.059Z,26.30
2022-12-18T17:51:23.748Z,27.00
2022-12-18T17:53:50.338Z,26.30
2022-12-18T17:56:19.341Z,24.00
2022-12-18T17:58:47.266Z,24.70
2022-12-18T18:01:15.523Z,23.90
2022-12-18T18:03:44.022Z,24.00
2022-12-18T18:06:11.220Z,25.50
2022-12-18T18:08:37.773Z,24.00
2022-12-18T18:11:24.339Z,25.40
2022-12-18T18:14:00.330Z,22.70
2022-12-18T18:16:34.572Z,23.50
2022-12-18T18:19:03.483Z,21.50
2022-12-18T18:21:30.829Z,24.90
2022-12-18T18:24:04.423Z,23.00
2022-12-18T18:26:32.482Z,25.60
2022-12-18T18:29:00.454Z,29.20
2022-12-18T18:31:30.279Z,25.30
2022-12-18T18:33:57.319Z,25.80
2022-12-18T18:36:24.085Z,24.30
2022-12-18T18:38:51.309Z,25.60
2022-12-18T18:41:18.622Z,25.90
2022-12-18T18:43:45.458Z,26.40
2022-12-18T18:46:14.221Z,25.70
2022-12-18T18:48:43.660Z,24.60
2022-12-18T18:51:14.612Z,24.80
2022-12-18T18:53:49.202Z,24.70
2022-12-18T18:56:45.620Z,28.00
2022-12-18T18:59:04.127Z,25.30
2022-12-18T19:01:30.570Z,25.80
2022-12-18T19:03:57.161Z,26.80
2022-12-18T19:06:25.828Z,24.70
2022-12-18T19:08:54.852Z,27.50
2022-12-18T19:11:41.769Z,28.90
2022-12-18T19:14:10.267Z,26.20
2022-12-18T19:16:37.051Z,28.60
2022-12-18T19:19:03.789Z,27.90
2022-12-18T19:21:31.863Z,28.40
2022-12-18T19:24:01.837Z,27.30
2022-12-18T19:26:28.863Z,29.40
2022-12-18T19:29:03.308Z,29.10
2022-12-18T19:31:35.137Z,26.90
2022-12-18T19:34:04.365Z,29.70
2022-12-18T19:36:34.600Z,29.90
2022-12-18T19:39:02.207Z,29.70
2022-12-18T19:41:31.277Z,30.50
2022-12-18T19:43:58.459Z,30.50
2022-12-18T19:46:24.882Z,32.30
2022-12-18T19:48:51.684Z,31.00
2022-12-18T19:51:23.664Z,29.70
2022-12-18T19:53:56.390Z,30.10
2022-12-18T19:56:26.860Z,29.60
2022-12-18T19:58:53.739Z,28.80
2022-12-18T20:01:22.413Z,30.30
2022-12-18T20:03:52.576Z,29.20
2022-12-18T20:06:26.478Z,29.70
2022-12-18T20:08:54.651Z,26.80
2022-12-18T20:11:26.271Z,30.70
2022-12-18T20:13:52.647Z,31.90
2022-12-18T20:16:19.144Z,28.70
2022-12-18T20:18:45.568Z,32.00
2022-12-18T20:21:14.020Z,27.60
2022-12-18T20:23:41.482Z,29.70
2022-12-18T20:26:08.737Z,29.50
2022-12-18T20:28:35.527Z,30.80
2022-12-18T20:31:05.757Z,31.10
2022-12-18T20:33:32.615Z,28.50
2022-12-18T20:36:01.684Z,30.40
2022-12-18T20:38:29.507Z,33.30
2022-12-18T20:40:58.797Z,34.10
2022-12-18T20:43:25.265Z,30.30
2022-12-18T20:46:00.337Z,33.00
2022-12-18T20:48:27.712Z,31.80
2022-12-18T20:51:07.429Z,30.60
2022-12-18T20:53:34.796Z,34.00
2022-12-18T20:56:06.431Z,33.50
2022-12-18T20:58:33.001Z,32.90
2022-12-18T21:01:03.564Z,32.60
2022-12-18T21:03:30.184Z,30.80
2022-12-18T21:05:56.627Z,31.00
2022-12-18T21:08:23.033Z,32.90
2022-12-18T21:10:49.325Z,31.30
2022-12-18T21:13:16.469Z,33.40
2022-12-18T21:15:43.588Z,29.50
2022-12-18T21:18:10.407Z,34.80
2022-12-18T21:20:36.934Z,32.20
2022-12-18T21:23:14.267Z,28.20
2022-12-18T21:25:42.989Z,32.40
2022-12-18T21:28:09.294Z,32.60
2022-12-18T21:30:35.693Z,31.30
2022-12-18T21:33:02.265Z,31.80
2022-12-18T21:35:28.568Z,32.00
2022-12-18T21:37:58.407Z,29.30
2022-12-18T21:40:24.816Z,31.30
2022-12-18T21:43:10.340Z,33.10
2022-12-18T21:45:40.291Z,31.50
2022-12-18T21:48:06.845Z,34.60
2022-12-18T21:50:33.150Z,33.70
2022-12-18T21:52:59.528Z,34.60
2022-12-18T21:55:25.901Z,33.50
2022-12-18T21:57:54.067Z,37.60
2022-12-18T22:00:20.552Z,32.10
2022-12-18T22:02:48.745Z,35.40
2022-12-18T22:05:35.149Z,35.50
2022-12-18T22:08:01.459Z,34.60
2022-12-18T22:10:27.983Z,32.20
2022-12-18T22:12:55.116Z,34.10
2022-12-18T22:15:22.041Z,32.60
2022-12-18T22:17:52.688Z,33.40
2022-12-18T22:20:27.869Z,34.70
2022-12-18T22:22:55.749Z,30.80
2022-12-18T22:25:22.065Z,33.30
2022-12-18T22:28:07.228Z,34.60
2022-12-18T22:30:34.175Z,32.80
2022-12-18T22:33:01.174Z,34.60
2022-12-18T22:35:27.491Z,31.10
2022-12-18T22:37:54.019Z,34.30
2022-12-18T22:40:27.415Z,32.70
2022-12-18T22:42:54.156Z,33.50
2022-12-18T22:45:20.547Z,33.90
2022-12-18T22:47:46.919Z,33.10
2022-12-18T22:50:14.111Z,32.70
2022-12-18T22:52:40.484Z,33.90
2022-12-18T22:55:07.704Z,31.70
2022-12-18T22:57:34.236Z,30.50
2022-12-18T23:00:01.812Z,33.90
2022-12-18T23:02:28.465Z,33.50
2022-12-18T23:04:55.041Z,32.90
2022-12-18T23:07:21.568Z,33.10
2022-12-18T23:09:50.031Z,32.00
2022-12-18T23:12:19.072Z,34.00
2022-12-18T23:14:47.927Z,32.30
2022-12-18T23:17:14.389Z,31.50
2022-12-18T23:19:47.106Z,32.70
2022-12-18T23:22:16.457Z,36.60
2022-12-18T23:24:42.964Z,35.00
2022-12-18T23:27:11.841Z,34.60
2022-12-18T23:29:39.874Z,35.90
2022-12-18T23:32:07.041Z,34.60
2022-12-18T23:34:33.406Z,34.60
2022-12-18T23:37:00.383Z,31.70
2022-12-18T23:39:30.158Z,33.80
2022-12-18T23:41:57.806Z,31.20
2022-12-18T23:44:24.734Z,34.10
2022-12-18T23:46:51.103Z,34.90
2022-12-18T23:49:17.850Z,32.40
2022-12-18T23:51:44.209Z,34.40
2022-12-18T23:54:10.634Z,34.00
2022-12-18T23:56:37.075Z,33.50
2022-12-18T23:59:03.508Z,31.60
